Time;durP1;ratioP1;P1;durP2;ratioP2;P2;SDS_P1;SDS_P2;PMS_P1;PMS_P2;Temp;Humidity;BMP_temperature;BMP_pressure;BME280_temperature;BME280_humidity;BME280_pressure;Samples;Min_cycle;Max_cycle;Signal;HPM_P1;HPM_P2
2022/05/20 00:04:37;;;;;;;26.08;22.00;;;;;;;16.07;nan;100925.47;10392711;28;20523;-82
2022/05/20 00:09:40;;;;;;;30.23;23.83;;;;;;;15.92;nan;100930.50;10386299;28;20057;-81
2022/05/20 00:14:44;;;;;;;28.95;23.55;;;;;;;15.75;nan;100936.69;10379872;28;20046;-81
2022/05/20 00:19:47;;;;;;;30.33;23.90;;;;;;;15.24;nan;100936.78;10378250;28;20042;-80
2022/05/20 00:30:13;;;;;;;36.35;26.05;;;;;;;15.47;nan;100947.41;10377742;28;20056;-82
2022/05/20 00:35:17;;;;;;;38.35;26.65;;;;;;;15.56;nan;100946.53;10363046;28;20102;-81
2022/05/20 00:40:23;;;;;;;39.55;27.55;;;;;;;15.32;nan;100946.06;10376601;28;20191;-81
2022/05/20 00:45:27;;;;;;;38.05;27.60;;;;;;;15.34;nan;100947.66;10375425;28;20044;-81
2022/05/20 00:50:31;;;;;;;39.05;27.88;;;;;;;14.98;nan;100958.13;10371602;28;20053;-81
2022/05/20 00:55:35;;;;;;;40.70;28.77;;;;;;;14.97;nan;100966.38;10376722;28;20084;-80
2022/05/20 01:00:43;;;;;;;40.70;30.40;;;;;;;14.77;nan;100960.91;10376084;28;20153;-81
2022/05/20 01:05:49;;;;;;;42.42;32.22;;;;;;;14.64;nan;100960.31;10334740;28;20081;-81
2022/05/20 01:10:52;;;;;;;45.20;31.58;;;;;;;14.96;nan;100961.97;10340701;28;20545;-82
2022/05/20 01:15:57;;;;;;;45.00;32.38;;;;;;;15.12;nan;100970.41;10362579;28;20049;-83
2022/05/20 01:21:00;;;;;;;42.92;30.95;;;;;;;15.15;nan;100964.72;10376322;28;20055;-81
2022/05/20 01:26:06;;;;;;;37.15;27.20;;;;;;;15.17;nan;100975.41;10374188;28;20057;-80
2022/05/20 01:31:13;;;;;;;38.72;28.92;;;;;;;15.01;nan;100957.00;10335839;28;20135;-82
2022/05/20 01:36:19;;;;;;;42.47;29.90;;;;;;;14.92;nan;100955.13;10348844;28;20060;-82
2022/05/20 01:41:32;;;;;;;47.72;30.58;;;;;;;14.86;nan;100963.78;10374638;28;20054;-80
2022/05/20 01:46:38;;;;;;;42.22;31.13;;;;;;;14.77;nan;100958.22;10372742;28;20061;-82
2022/05/20 01:51:46;;;;;;;41.33;30.90;;;;;;;14.79;nan;100958.09;10375964;28;20160;-81
2022/05/20 01:56:55;;;;;;;32.35;24.60;;;;;;;14.81;nan;100935.31;10376024;28;20053;-81
2022/05/20 02:02:03;;;;;;;35.05;26.23;;;;;;;14.71;nan;100947.94;10373242;28;20084;-82
2022/05/20 02:07:11;;;;;;;32.70;25.77;;;;;;;14.53;nan;100963.09;10373644;28;20684;-81
2022/05/20 02:12:19;;;;;;;29.50;23.27;;;;;;;14.52;nan;100972.22;10379159;28;20145;-80
2022/05/20 02:17:28;;;;;;;31.27;22.60;;;;;;;14.46;nan;100953.84;10384171;28;20732;-82
2022/05/20 02:22:36;;;;;;;36.05;23.70;;;;;;;14.30;nan;100967.81;10376137;28;20069;-83
2022/05/20 02:27:43;;;;;;;35.05;22.25;;;;;;;14.01;nan;100982.00;10373258;28;20048;-80
2022/05/20 02:32:51;;;;;;;32.97;22.55;;;;;;;13.82;nan;100974.66;10374941;28;20495;-81
2022/05/20 02:37:54;;;;;;;36.30;21.65;;;;;;;13.49;nan;100973.81;10372166;28;20057;-81
2022/05/20 02:42:59;;;;;;;32.40;24.50;;;;;;;13.63;nan;100982.56;10369547;28;20056;-83
2022/05/20 02:48:02;;;;;;;35.15;22.85;;;;;;;13.60;nan;100983.72;10380127;28;20053;-81
2022/05/20 02:53:05;;;;;;;33.47;22.52;;;;;;;13.63;nan;100978.06;10382372;28;20057;-81
2022/05/20 03:04:09;;;;;;;33.08;22.95;;;;;;;13.59;nan;100973.03;10382285;28;20511;-80
2022/05/20 03:08:54;;;;;;;36.40;25.77;;;;;;;13.16;nan;100987.38;10378819;28;21132;-80
2022/05/20 03:13:58;;;;;;;35.38;25.38;;;;;;;13.27;nan;100992.72;10379521;28;20080;-81
2022/05/20 03:19:01;;;;;;;40.72;27.52;;;;;;;13.37;nan;101003.66;10379871;28;20049;-81
2022/05/20 03:24:06;;;;;;;39.85;26.98;;;;;;;13.55;nan;101002.13;10378564;28;20037;-81
2022/05/20 03:29:10;;;;;;;40.45;27.63;;;;;;;13.75;nan;100999.59;10367675;28;20242;-80
2022/05/20 03:34:13;;;;;;;39.05;27.98;;;;;;;13.77;nan;100998.47;10377235;28;20081;-81
2022/05/20 03:39:23;;;;;;;39.83;26.93;;;;;;;13.87;nan;101001.25;10380904;28;20052;-82
2022/05/20 03:44:28;;;;;;;35.42;26.75;;;;;;;13.69;nan;101000.97;10379964;28;21191;-79
2022/05/20 03:49:31;;;;;;;34.55;25.90;;;;;;;13.64;nan;101012.16;10395248;28;20057;-79
2022/05/20 03:54:34;;;;;;;39.08;25.38;;;;;;;13.61;nan;101020.50;10343770;28;20056;-80
2022/05/20 03:59:39;;;;;;;37.85;25.60;;;;;;;13.72;nan;101016.91;10364404;28;20067;-80
2022/05/20 04:04:44;;;;;;;34.67;25.20;;;;;;;13.82;nan;101015.16;10383927;28;20518;-82
2022/05/20 04:09:48;;;;;;;34.60;26.00;;;;;;;13.83;nan;101024.09;10390296;28;20053;-83
2022/05/20 04:14:53;;;;;;;33.90;25.08;;;;;;;13.85;nan;101019.41;10400227;28;20080;-81
2022/05/20 04:19:56;;;;;;;29.63;22.42;;;;;;;14.00;nan;101017.25;10423040;28;20069;-77
2022/05/20 04:25:00;;;;;;;33.40;22.88;;;;;;;14.01;nan;101030.63;10446828;28;20590;-78
2022/05/20 04:30:06;;;;;;;26.02;20.92;;;;;;;13.95;nan;101031.16;10424125;28;20060;-81
2022/05/20 04:35:09;;;;;;;25.98;21.52;;;;;;;14.04;nan;101021.41;10419354;28;20052;-81
2022/05/20 04:40:13;;;;;;;25.45;20.83;;;;;;;14.04;nan;101022.28;10416747;28;20415;-82
2022/05/20 04:50:39;;;;;;;27.27;19.33;;;;;;;14.03;nan;101030.50;10380119;28;20365;-80
2022/05/20 04:55:42;;;;;;;25.80;20.00;;;;;;;14.26;nan;101026.69;10415815;28;20695;-80
2022/05/20 05:00:46;;;;;;;22.58;18.88;;;;;;;14.31;nan;101016.31;10415592;28;20150;-81
2022/05/20 05:05:49;;;;;;;28.40;21.70;;;;;;;14.49;nan;101015.75;10419202;28;20049;-82
2022/05/20 05:10:55;;;;;;;24.52;18.27;;;;;;;14.49;nan;101016.59;10417229;28;20060;-81
2022/05/20 05:15:59;;;;;;;28.27;18.95;;;;;;;14.33;nan;101035.97;10427707;28;20434;-79
2022/05/20 05:21:03;;;;;;;22.30;18.58;;;;;;;14.45;nan;101022.41;10446753;28;20120;-79
2022/05/20 05:26:06;;;;;;;23.58;19.05;;;;;;;14.49;nan;101029.25;10418734;28;20052;-81
2022/05/20 05:31:10;;;;;;;23.13;17.60;;;;;;;14.63;nan;101044.28;10419630;28;20045;-81
2022/05/20 05:36:13;;;;;;;23.38;18.10;;;;;;;14.68;nan;101047.44;10418268;28;20048;-82
2022/05/20 05:41:17;;;;;;;22.63;18.17;;;;;;;14.85;nan;101046.78;10375139;28;20053;-81
2022/05/20 05:46:22;;;;;;;27.65;17.45;;;;;;;15.11;nan;101040.88;10417238;28;20095;-82
2022/05/20 05:51:26;;;;;;;21.05;17.08;;;;;;;15.27;nan;101039.34;10424609;28;20414;-79
2022/05/20 05:56:28;;;;;;;14.07;10.63;;;;;;;15.15;nan;101039.63;10418861;28;21539;-81
2022/05/20 06:01:33;;;;;;;13.57;11.73;;;;;;;15.34;nan;101031.59;10404898;28;20069;-79
2022/05/20 06:06:39;;;;;;;13.93;8.82;;;;;;;15.98;nan;101026.63;10428635;28;20059;-80
2022/05/20 06:11:43;;;;;;;16.70;13.68;;;;;;;16.02;nan;101019.94;10429572;28;20092;-78
2022/05/20 06:16:47;;;;;;;21.42;14.57;;;;;;;15.98;nan;101018.50;10429848;28;20053;-80
2022/05/20 06:21:51;;;;;;;17.33;14.63;;;;;;;16.00;nan;101014.63;10433203;28;20044;-80
2022/05/20 06:26:59;;;;;;;15.90;11.85;;;;;;;16.36;nan;101028.44;10436031;28;20148;-79
2022/05/20 06:32:03;;;;;;;24.75;16.80;;;;;;;16.35;nan;101022.16;10428113;28;21538;-81
2022/05/20 06:42:28;;;;;;;14.93;13.07;;;;;;;16.83;nan;101001.28;10448558;28;20052;-81
2022/05/20 06:47:33;;;;;;;17.05;13.82;;;;;;;17.36;nan;101002.41;10436054;28;20192;-78
2022/05/20 06:52:36;;;;;;;18.10;14.50;;;;;;;18.03;nan;100994.75;10425663;28;60397;-78
2022/05/20 06:57:41;;;;;;;15.70;10.73;;;;;;;17.21;nan;100994.81;10439528;28;20052;-79
2022/05/20 07:02:45;;;;;;;21.30;10.35;;;;;;;17.92;nan;100983.06;10434215;28;20086;-78
2022/05/20 07:07:48;;;;;;;17.20;11.40;;;;;;;18.34;nan;100986.97;10421518;28;20083;-79
2022/05/20 07:12:51;;;;;;;18.70;13.50;;;;;;;18.10;nan;100979.50;10426098;28;20051;-77
2022/05/20 07:17:56;;;;;;;17.58;13.48;;;;;;;18.23;nan;100966.31;10421728;28;20052;-79
2022/05/20 07:22:59;;;;;;;11.32;7.72;;;;;;;19.18;nan;100964.38;10427639;28;20052;-79
2022/05/20 07:28:02;;;;;;;12.95;11.55;;;;;;;21.22;nan;100946.81;10427786;28;20059;-79
2022/05/20 07:33:07;;;;;;;16.27;11.60;;;;;;;23.55;nan;100946.66;10436557;28;20103;-79
2022/05/20 07:38:10;;;;;;;11.95;10.70;;;;;;;26.26;nan;100937.03;10438526;28;20107;-79
2022/05/20 07:43:13;;;;;;;13.20;9.55;;;;;;;27.34;nan;100934.47;10419673;28;20118;-81
2022/05/20 07:48:18;;;;;;;13.43;10.82;;;;;;;27.36;nan;100925.97;10431540;28;20052;-82
2022/05/20 07:53:32;;;;;;;12.10;10.40;;;;;;;25.13;nan;100921.28;10435585;28;20057;-80
2022/05/20 07:58:39;;;;;;;13.75;9.15;;;;;;;23.17;nan;100919.50;10426990;28;20392;-81
2022/05/20 08:09:17;;;;;;;11.90;7.82;;;;;;;21.25;nan;100914.72;10433219;28;20183;-82
2022/05/20 08:14:20;;;;;;;12.75;10.57;;;;;;;20.49;nan;100914.44;10406088;28;20040;-84
2022/05/20 08:19:26;;;;;;;9.40;8.05;;;;;;;20.20;nan;100913.13;10425586;28;20055;-83
2022/05/20 08:24:29;;;;;;;11.60;9.88;;;;;;;20.03;nan;100908.75;10420552;28;20056;-80
2022/05/20 08:29:33;;;;;;;10.90;8.52;;;;;;;20.33;nan;100909.88;10422477;28;20818;-78
2022/05/20 08:34:38;;;;;;;14.65;9.35;;;;;;;20.01;nan;100900.72;10421562;28;20102;-79
2022/05/20 08:39:46;;;;;;;12.60;9.20;;;;;;;20.53;nan;100875.69;10417959;28;20080;-78
2022/05/20 08:44:49;;;;;;;9.25;7.43;;;;;;;20.76;nan;100872.13;10420947;28;20088;-80
2022/05/20 08:49:58;;;;;;;10.90;8.35;;;;;;;21.21;nan;100863.16;10423279;28;20055;-78
2022/05/20 08:55:01;;;;;;;11.80;9.80;;;;;;;21.30;nan;100850.28;10407699;28;21287;-80
2022/05/20 09:00:20;;;;;;;15.07;10.95;;;;;;;21.94;nan;100843.53;10420917;28;20106;-79
2022/05/20 09:05:30;;;;;;;10.98;9.20;;;;;;;21.91;nan;100835.72;10421088;28;20053;-80
2022/05/20 09:10:39;;;;;;;8.75;7.45;;;;;;;22.31;nan;100832.50;10418733;28;20049;-80
2022/05/20 09:15:46;;;;;;;10.95;6.70;;;;;;;22.42;nan;100824.84;10420523;28;20045;-80
2022/05/20 09:20:53;;;;;;;10.80;6.85;;;;;;;22.31;nan;100824.28;10419008;28;20079;-79
2022/05/20 09:26:02;;;;;;;9.25;7.78;;;;;;;22.40;nan;100811.34;10419356;28;21277;-80
2022/05/20 09:31:17;;;;;;;9.25;7.50;;;;;;;22.81;nan;100798.97;10419918;28;20057;-79
2022/05/20 09:36:46;;;;;;;8.00;6.50;;;;;;;23.60;nan;100779.66;10412616;28;20056;-79
2022/05/20 09:41:55;;;;;;;8.45;5.82;;;;;;;24.13;nan;100765.41;10414940;28;20045;-78
2022/05/20 09:47:01;;;;;;;8.55;6.82;;;;;;;24.73;nan;100766.47;10416760;28;20045;-77
2022/05/20 09:52:17;;;;;;;11.65;6.70;;;;;;;23.70;nan;100768.34;10423197;28;20048;-79
2022/05/20 09:57:24;;;;;;;9.88;6.95;;;;;;;24.14;nan;100770.69;10422781;28;20060;-78
2022/05/20 10:02:31;;;;;;;10.63;6.95;;;;;;;24.76;nan;100769.63;10423744;28;20052;-79
2022/05/20 10:08:02;;;;;;;14.32;7.97;;;;;;;24.94;nan;100770.94;10424702;28;20053;-79
2022/05/20 10:13:09;;;;;;;11.65;7.60;;;;;;;24.38;nan;100763.84;10407038;28;20048;-78
2022/05/20 10:18:21;;;;;;;9.45;8.07;;;;;;;24.40;nan;100760.88;10414227;28;20045;-78
2022/05/20 10:23:33;;;;;;;9.13;6.90;;;;;;;25.34;nan;100743.47;10424012;28;20076;-80
2022/05/20 10:34:10;;;;;;;9.82;7.10;;;;;;;26.78;nan;100722.16;10420279;28;20371;-79
2022/05/20 10:39:28;;;;;;;11.55;7.93;;;;;;;26.60;nan;100721.00;10423520;28;20044;-78
2022/05/20 10:50:14;;;;;;;10.40;9.02;;;;;;;26.06;nan;100681.06;10412223;28;21369;-82
2022/05/20 10:55:29;;;;;;;14.77;10.07;;;;;;;25.39;nan;100667.50;10422327;28;20447;-78
2022/05/20 11:00:42;;;;;;;11.32;8.27;;;;;;;25.43;nan;100651.44;10424206;28;20429;-80
2022/05/20 11:06:14;;;;;;;12.48;9.68;;;;;;;26.21;nan;100648.56;10452921;28;20675;-80
2022/05/20 11:11:31;;;;;;;11.38;9.50;;;;;;;26.05;nan;100641.69;10420693;28;20127;-78
2022/05/20 11:16:50;;;;;;;10.73;9.60;;;;;;;25.69;nan;100620.28;10419338;28;20053;-78
2022/05/20 11:22:16;;;;;;;13.90;10.02;;;;;;;26.70;nan;100602.88;10420392;28;20075;-78
2022/05/20 11:27:45;;;;;;;13.85;10.82;;;;;;;27.33;nan;100599.06;10418823;28;20350;-77
2022/05/20 11:33:12;;;;;;;13.77;8.65;;;;;;;27.86;nan;100581.00;10418922;28;20053;-79
2022/05/20 11:38:40;;;;;;;11.27;10.18;;;;;;;27.06;nan;100559.09;10421138;28;20182;-76
2022/05/20 11:44:21;;;;;;;12.68;10.60;;;;;;;26.66;nan;100549.31;10414703;28;20061;-78
2022/05/20 11:49:44;;;;;;;13.35;11.85;;;;;;;28.24;nan;100539.22;10352700;28;20048;-78
2022/05/20 11:54:52;;;;;;;11.18;8.73;;;;;;;28.17;nan;100524.72;10418114;28;20718;-80
2022/05/20 12:00:02;;;;;;;14.55;12.98;;;;;;;28.98;nan;100502.84;10396752;28;20128;-78
2022/05/20 12:05:12;;;;;;;18.23;13.25;;;;;;;28.05;nan;100483.25;10424140;28;20049;-80
2022/05/20 12:10:47;;;;;;;17.45;15.50;;;;;;;27.60;nan;100469.09;10419909;28;20124;-78
2022/05/20 12:16:11;;;;;;;17.85;14.73;;;;;;;27.99;nan;100445.56;10448517;28;20421;-81
2022/05/20 12:26:55;;;;;;;17.85;16.00;;;;;;;28.13;nan;100421.34;10529373;28;20083;-80
2022/05/20 12:32:00;;;;;;;16.08;14.00;;;;;;;28.65;nan;100404.84;10529218;28;20135;-80
2022/05/20 12:37:03;;;;;;;20.20;15.93;;;;;;;28.90;nan;100392.63;10511772;28;20515;-81
2022/05/20 12:42:21;;;;;;;16.25;13.68;;;;;;;29.28;nan;100393.94;10500321;28;20051;-78
2022/05/20 12:47:31;;;;;;;19.33;16.02;;;;;;;28.64;nan;100377.47;10501613;28;20044;-79
2022/05/20 12:52:45;;;;;;;16.80;14.02;;;;;;;28.94;nan;100355.13;10498087;28;20473;-78
2022/05/20 12:57:52;;;;;;;21.63;17.33;;;;;;;28.12;nan;100345.13;10485783;28;20063;-80
2022/05/20 13:03:01;;;;;;;21.20;17.98;;;;;;;29.33;nan;100320.19;10503397;28;20129;-80
2022/05/20 13:08:18;;;;;;;21.50;17.35;;;;;;;29.44;nan;100312.06;10498502;28;20412;-79
2022/05/20 13:13:23;;;;;;;23.50;17.23;;;;;;;28.83;nan;100315.41;10499466;28;20088;-78
2022/05/20 13:18:29;;;;;;;21.35;18.05;;;;;;;27.13;nan;100336.56;10500686;28;20052;-80
2022/05/20 13:23:34;;;;;;;22.35;16.00;;;;;;;28.50;nan;100322.47;10458202;28;20048;-80
2022/05/20 13:28:38;;;;;;;20.35;16.88;;;;;;;28.81;nan;100309.28;10482989;28;20512;-77
2022/05/20 13:33:43;;;;;;;24.50;17.08;;;;;;;29.18;nan;100308.03;10500534;28;20094;-78
2022/05/20 13:38:50;;;;;;;18.80;15.35;;;;;;;29.32;nan;100282.56;10500653;28;20048;-79
2022/05/20 13:43:55;;;;;;;21.20;18.25;;;;;;;28.57;nan;100264.31;10506002;28;20082;-77
2022/05/20 13:49:14;;;;;;;23.60;17.73;;;;;;;26.93;nan;100234.88;10501161;28;21273;-81
2022/05/20 13:54:20;;;;;;;21.95;17.35;;;;;;;26.22;nan;100217.19;10499830;28;20152;-81
2022/05/20 13:59:33;;;;;;;23.65;17.13;;;;;;;25.62;nan;100210.47;10502866;28;20247;-81
2022/05/20 14:04:43;;;;;;;22.33;17.42;;;;;;;24.75;nan;100199.38;10460336;28;20157;-79
2022/05/20 14:09:51;;;;;;;;;;;;;;;24.58;nan;100186.44;10492910;28;20404;-78
2022/05/20 14:14:59;;;;;;;23.20;18.10;;;;;;;23.68;nan;100200.94;10496142;28;19930;-78
2022/05/20 14:20:09;;;;;;;21.85;18.10;;;;;;;23.49;nan;100188.94;10490445;28;20073;-77
2022/05/20 14:25:19;;;;;;;22.23;18.48;;;;;;;23.29;nan;100178.03;10496837;28;20051;-78
2022/05/20 14:30:29;;;;;;;26.23;20.33;;;;;;;23.08;nan;100168.09;10490084;28;20054;-77
2022/05/20 14:35:43;;;;;;;26.95;19.58;;;;;;;22.87;nan;100151.88;10494167;28;20067;-78
2022/05/20 14:40:51;;;;;;;24.75;20.42;;;;;;;22.63;nan;100136.94;10492658;28;20044;-77
2022/05/20 14:45:57;;;;;;;33.45;25.25;;;;;;;20.49;nan;100139.56;10505227;28;21814;-78
2022/05/20 14:51:02;;;;;;;38.70;27.98;;;;;;;20.01;nan;100145.50;10504725;28;20083;-80
2022/05/20 14:56:06;;;;;;;42.53;31.33;;;;;;;19.58;nan;100144.53;10512294;28;20058;-79
2022/05/20 15:01:28;;;;;;;70.35;41.30;;;;;;;19.46;nan;100131.38;10502675;28;20103;-77
2022/05/20 15:06:36;;;;;;;69.32;42.30;;;;;;;19.38;nan;100126.03;10498345;27;21693;-77
2022/05/20 15:11:50;;;;;;;90.97;54.25;;;;;;;19.55;nan;100066.72;10498333;28;20056;-76
2022/05/20 15:16:56;;;;;;;63.33;40.15;;;;;;;18.00;nan;100136.25;10492998;28;21459;-76
2022/05/20 15:22:00;;;;;;;22.33;16.40;;;;;;;17.01;nan;100155.53;10495489;28;20516;-76
2022/05/20 15:27:03;;;;;;;26.45;15.98;;;;;;;16.73;nan;100157.78;10496104;28;20052;-76
2022/05/20 15:37:36;;;;;;;24.33;16.23;;;;;;;18.35;nan;100148.41;10495128;28;20048;-76
2022/05/20 15:42:40;;;;;;;16.88;12.77;;;;;;;18.90;nan;100141.88;10497910;28;20044;-76
2022/05/20 15:47:46;;;;;;;17.02;12.07;;;;;;;19.27;nan;100140.09;10495390;28;20052;-77
2022/05/20 15:52:58;;;;;;;13.00;10.57;;;;;;;19.55;nan;100125.81;10494676;28;20048;-77
2022/05/20 15:58:08;;;;;;;20.50;13.40;;;;;;;19.42;nan;100108.28;10494014;28;20043;-77
2022/05/20 16:03:11;;;;;;;22.00;15.38;;;;;;;19.04;nan;100098.53;10498169;28;20040;-77
2022/05/20 16:08:18;;;;;;;15.82;12.13;;;;;;;19.04;nan;100085.75;10498451;28;20405;-77
2022/05/20 16:13:22;;;;;;;12.50;11.02;;;;;;;18.87;nan;100081.50;10499423;28;20051;-77
2022/05/20 16:18:25;;;;;;;16.42;13.88;;;;;;;18.89;nan;100074.00;10496990;28;20505;-77
2022/05/20 16:23:36;;;;;;;14.80;13.30;;;;;;;18.80;nan;100057.75;10497633;28;20048;-77
2022/05/20 16:28:39;;;;;;;19.48;17.23;;;;;;;18.90;nan;100059.38;10500486;28;20457;-77
2022/05/20 16:33:43;;;;;;;22.70;18.45;;;;;;;19.21;nan;100054.56;10500428;28;20453;-78
2022/05/20 16:38:48;;;;;;;21.83;18.33;;;;;;;19.17;nan;100030.63;10506312;28;20044;-79
2022/05/20 16:43:51;;;;;;;29.40;20.98;;;;;;;19.08;nan;100032.63;10506762;28;20067;-78
2022/05/20 16:48:56;;;;;;;28.60;22.73;;;;;;;19.08;nan;100029.06;10507066;28;20048;-79
2022/05/20 16:54:04;;;;;;;35.45;24.48;;;;;;;19.14;nan;100015.56;10504351;28;20047;-77
2022/05/20 17:04:30;;;;;;;25.50;20.35;;;;;;;20.43;nan;99990.28;10459689;28;20052;-77
2022/05/20 17:09:34;;;;;;;20.02;13.90;;;;;;;20.00;nan;99977.53;10493450;28;20165;-77
2022/05/20 17:14:37;;;;;;;11.75;8.48;;;;;;;21.01;nan;99961.69;10494513;28;20497;-77
2022/05/20 17:19:43;;;;;;;6.03;5.43;;;;;;;21.48;nan;99950.97;10491757;28;20051;-77
2022/05/20 17:24:47;;;;;;;5.18;4.68;;;;;;;19.02;nan;99959.88;10494971;28;20180;-78
2022/05/20 17:29:51;;;;;;;7.10;5.38;;;;;;;18.27;nan;99956.28;10507578;28;20449;-79
2022/05/20 17:34:54;;;;;;;4.35;3.58;;;;;;;17.85;nan;99954.94;10517245;28;20044;-77
2022/05/20 17:39:59;;;;;;;6.15;4.30;;;;;;;19.35;nan;99940.38;10509846;28;20539;-77
2022/05/20 17:45:02;;;;;;;5.53;4.13;;;;;;;20.70;nan;99931.28;10481726;28;20139;-78
2022/05/20 17:50:05;;;;;;;4.57;3.20;;;;;;;20.57;nan;99918.44;10453616;28;20095;-77
2022/05/20 17:55:10;;;;;;;3.63;3.17;;;;;;;19.16;nan;99936.41;10497320;28;20048;-78
2022/05/20 18:00:14;;;;;;;4.85;3.65;;;;;;;18.65;nan;99934.47;10492901;28;20080;-77
2022/05/20 18:05:18;;;;;;;5.15;3.85;;;;;;;18.86;nan;99935.59;10496296;28;20051;-80
2022/05/20 18:10:22;;;;;;;7.80;3.95;;;;;;;18.44;nan;99946.09;10497204;28;20086;-78
2022/05/20 18:15:25;;;;;;;7.15;4.07;;;;;;;17.67;nan;99940.81;10497426;28;20044;-78
2022/05/20 18:20:28;;;;;;;4.68;3.13;;;;;;;17.83;nan;99940.69;10475806;28;20097;-78
2022/05/20 18:25:33;;;;;;;5.55;4.68;;;;;;;17.80;nan;99942.91;10500023;28;20425;-80
2022/05/20 18:30:36;;;;;;;5.25;4.85;;;;;;;17.57;nan;99957.34;10511787;28;20174;-79
2022/05/20 18:41:05;;;;;;;6.20;5.60;;;;;;;17.35;nan;99964.44;10501623;28;20158;-79
2022/05/20 18:46:09;;;;;;;8.40;7.03;;;;;;;17.59;nan;99960.72;10502599;28;20059;-78
2022/05/20 18:51:12;;;;;;;6.38;5.88;;;;;;;17.09;nan;100000.00;10498614;28;20062;-77
2022/05/20 18:56:17;;;;;;;8.13;6.75;;;;;;;16.97;nan;100020.38;10499319;28;20070;-77
2022/05/20 19:01:19;;;;;;;9.63;6.43;;;;;;;16.93;nan;100030.75;10499217;28;20050;-77
2022/05/20 19:06:24;;;;;;;8.40;7.55;;;;;;;16.69;nan;100034.38;10499292;28;20800;-76
2022/05/20 19:11:34;;;;;;;7.55;6.78;;;;;;;16.32;nan;100081.03;10500136;28;20052;-77
2022/05/20 19:16:37;;;;;;;12.05;8.27;;;;;;;16.02;nan;100086.03;10499712;28;20048;-75
2022/05/20 19:21:40;;;;;;;7.18;6.10;;;;;;;15.26;nan;100086.94;10503552;28;20063;-77
2022/05/20 19:26:44;;;;;;;9.48;8.13;;;;;;;15.54;nan;100130.06;10500223;28;20052;-79
2022/05/20 19:31:47;;;;;;;6.05;5.43;;;;;;;15.31;nan;100159.53;10503491;28;20058;-78
2022/05/20 19:36:50;;;;;;;8.38;7.57;;;;;;;14.70;nan;100166.69;10500974;28;20055;-78
2022/05/20 19:41:54;;;;;;;9.82;7.75;;;;;;;14.77;nan;100179.44;10480485;28;20094;-78
2022/05/20 19:46:57;;;;;;;9.80;8.77;;;;;;;14.83;nan;100211.25;10494586;28;20059;-78
2022/05/20 19:52:00;;;;;;;10.85;7.82;;;;;;;14.39;nan;100213.03;10503380;28;20079;-77
2022/05/20 20:02:26;;;;;;;5.63;5.03;;;;;;;14.03;nan;100236.44;10501781;28;20056;-77
2022/05/20 20:07:29;;;;;;;7.22;4.95;;;;;;;13.64;nan;100250.09;10504551;28;20054;-78
2022/05/20 20:12:34;;;;;;;5.78;4.85;;;;;;;13.97;nan;100262.19;10500175;28;20505;-78
2022/05/20 20:17:38;;;;;;;5.45;4.95;;;;;;;13.83;nan;100293.22;10494694;28;20060;-77
2022/05/20 20:28:04;;;;;;;4.75;3.05;;;;;;;13.61;nan;100324.13;10492048;28;20664;-77
2022/05/20 20:33:07;;;;;;;5.18;3.88;;;;;;;13.56;nan;100348.00;10496192;28;20071;-78
2022/05/20 20:38:10;;;;;;;5.50;3.97;;;;;;;13.90;nan;100350.16;10497872;28;21320;-77
2022/05/20 20:43:15;;;;;;;8.65;5.05;;;;;;;13.33;nan;100354.66;10496892;28;20583;-78
2022/05/20 20:48:18;;;;;;;5.80;5.22;;;;;;;12.94;nan;100387.84;10492554;28;20068;-77
2022/05/20 20:53:24;;;;;;;7.35;4.95;;;;;;;13.10;nan;100381.06;10493763;28;20078;-78
2022/05/20 20:58:28;;;;;;;7.80;6.57;;;;;;;13.18;nan;100387.44;10491438;28;20051;-78
2022/05/20 21:03:33;;;;;;;8.30;6.60;;;;;;;12.78;nan;100384.84;10495766;28;20040;-78
2022/05/20 21:08:37;;;;;;;7.18;6.45;;;;;;;13.08;nan;100405.47;10493554;28;20446;-78
2022/05/20 21:13:42;;;;;;;7.88;6.93;;;;;;;12.64;nan;100406.78;10493845;28;20040;-78
2022/05/20 21:18:45;;;;;;;9.18;7.65;;;;;;;13.01;nan;100404.34;10495573;28;20535;-79
2022/05/20 21:23:47;;;;;;;9.45;7.63;;;;;;;12.76;nan;100403.00;10496556;28;20417;-78
2022/05/20 21:28:52;;;;;;;8.55;6.50;;;;;;;13.19;nan;100424.22;10494580;28;20052;-78
2022/05/20 21:33:55;;;;;;;12.45;6.18;;;;;;;12.84;nan;100422.03;10494745;28;20526;-76
2022/05/20 21:39:01;;;;;;;8.13;6.80;;;;;;;12.90;nan;100439.50;10494888;28;20108;-76
2022/05/20 21:44:07;;;;;;;9.15;6.35;;;;;;;12.85;nan;100442.59;10476028;28;20044;-78
2022/05/20 21:49:10;;;;;;;12.70;7.70;;;;;;;13.18;nan;100441.38;10493193;28;20108;-77
2022/05/20 21:54:14;;;;;;;7.30;5.57;;;;;;;12.72;nan;100458.16;10497380;28;20060;-78
2022/05/20 21:59:18;;;;;;;9.02;7.43;;;;;;;12.97;nan;100473.88;10511166;28;20405;-78
2022/05/20 22:09:42;;;;;;;12.38;8.35;;;;;;;13.23;nan;100467.94;10499809;28;20052;-78
2022/05/20 22:14:46;;;;;;;11.15;7.47;;;;;;;12.81;nan;100474.38;10502800;28;20063;-77
2022/05/20 22:19:49;;;;;;;13.32;8.43;;;;;;;12.83;nan;100482.31;10500681;28;20078;-78
2022/05/20 22:24:52;;;;;;;13.32;8.43;;;;;;;12.84;nan;100478.66;10504978;28;20133;-77
2022/05/20 22:29:56;;;;;;;10.95;7.88;;;;;;;12.82;nan;100494.94;10502727;28;20059;-78
2022/05/20 22:35:07;;;;;;;10.70;8.38;;;;;;;12.45;nan;100513.53;10503920;28;20055;-77
2022/05/20 22:40:12;;;;;;;10.52;7.95;;;;;;;12.54;nan;100517.25;10491520;28;20040;-78
2022/05/20 22:45:16;;;;;;;10.10;8.77;;;;;;;12.04;nan;100530.47;10503633;28;20040;-78
2022/05/20 22:50:19;;;;;;;10.75;8.23;;;;;;;11.32;nan;100545.41;10501651;28;20564;-78
2022/05/20 23:00:45;;;;;;;4.22;3.83;;;;;;;11.02;nan;100586.34;10498104;28;20523;-78
2022/05/20 23:05:48;;;;;;;6.63;4.20;;;;;;;11.41;nan;100593.09;10483392;28;20059;-77
2022/05/20 23:10:52;;;;;;;5.72;4.15;;;;;;;11.35;nan;100608.88;10499354;28;20121;-78
2022/05/20 23:15:56;;;;;;;6.63;4.25;;;;;;;11.20;nan;100606.44;10501582;28;20190;-77
2022/05/20 23:21:00;;;;;;;4.32;3.83;;;;;;;11.30;nan;100619.13;10498984;28;20083;-77
2022/05/20 23:26:05;;;;;;;5.50;5.00;;;;;;;11.00;nan;100612.53;10500056;28;20085;-78
2022/05/20 23:31:12;;;;;;;6.18;5.57;;;;;;;11.03;nan;100639.16;10500166;28;20071;-77
2022/05/20 23:36:34;;;;;;;10.30;6.55;;;;;;;11.04;nan;100636.34;10499385;28;20230;-78
2022/05/20 23:41:40;;;;;;;9.27;6.95;;;;;;;11.08;nan;100631.59;10500130;28;20109;-78
2022/05/20 23:46:44;;;;;;;9.10;7.65;;;;;;;11.56;nan;100644.78;10500135;28;20048;-78
2022/05/20 23:51:49;;;;;;;10.45;9.00;;;;;;;11.36;nan;100634.78;10500539;28;20532;-79
2022/05/20 23:57:07;;;;;;;13.45;10.73;;;;;;;11.80;nan;100630.31;10500318;28;20052;-78
